KMOT/MOT METAR and TAF weather

Enter ICAO airport designator
Station Type Date Time Source
KMOT METAR 2019/02/16 07:54 UTC NOAA

KMOT 160754Z AUTO 12011KT 10SM OVC085 M19/M22 A3000 RMK AO2 SLP210 T11891217


Station Type Date Time Source
KMOT Decoded METAR 2019/02/16 07:54 UTC NOAA

MINOT INTERNATIONAL AIRPORT , ND, United States (KMOT) 48-16N 101-17W 519M
Feb 16, 2019 - 02:54 AM EST / 2019.02.16 0754 UTC
Wind: from the ESE (120 degrees) at 13 MPH (11 KT):0
Visibility: 10 mile(s):0
Sky conditions: overcast
Temperature: -2.0 F (-18.9 C)
Windchill: -20 F (-29 C):2
Dew Point: -7.1 F (-21.7 C)
Relative Humidity: 78%
Pressure (altimeter): 30 in. Hg (1015 hPa)
ob: KMOT 160754Z AUTO 12011KT 10SM OVC085 M19/M22 A3000 RMK AO2 SLP210 T11891217
cycle: 8

Station Type Date Time Source
KMOT TAF 2019/02/16 06:28 UTC NOAA

TAF KMOT 160525Z 1606/1706 11008KT P6SM OVC100
FM161300 11008KT P6SM OVC025
FM162300 05009KT P6SM VCSH OVC015


Example: see airport list